Time;durP1;ratioP1;P1;durP2;ratioP2;P2;SDS_P1;SDS_P2;PMS_P1;PMS_P2;Temp;Humidity;BMP_temperature;BMP_pressure;BME280_temperature;BME280_humidity;BME280_pressure;Samples;Min_cycle;Max_cycle;Signal;HPM_P1;HPM_P2
2022/08/08 00:00:10;;;;;;;2.65;1.75;;;15.00;99.90;;;;;;5021474;28;20041;-74
2022/08/08 00:02:58;;;;;;;5.18;2.05;;;14.70;99.90;;;;;;5051245;28;20041;-73
2022/08/08 00:05:49;;;;;;;2.10;1.58;;;14.70;99.90;;;;;;5056329;28;20110;-74
2022/08/08 00:08:36;;;;;;;2.65;1.98;;;14.60;99.90;;;;;;5047341;28;20138;-73
2022/08/08 00:11:13;;;;;;;5.60;2.08;;;14.50;99.90;;;;;;5044401;28;20040;-73
2022/08/08 00:13:47;;;;;;;4.25;2.22;;;14.50;99.90;;;;;;5054463;28;20037;-73
2022/08/08 00:16:22;;;;;;;3.53;2.10;;;14.50;99.90;;;;;;5049069;28;20067;-73
2022/08/08 00:19:08;;;;;;;3.50;2.03;;;14.50;99.90;;;;;;5057763;28;20552;-73
2022/08/08 00:21:44;;;;;;;2.30;2.10;;;14.40;99.90;;;;;;5039204;28;20045;-74
2022/08/08 00:24:37;;;;;;;3.30;1.58;;;14.40;99.90;;;;;;5052329;28;20041;-73
2022/08/08 00:27:09;;;;;;;4.05;1.90;;;14.50;99.90;;;;;;5060483;28;20052;-73
2022/08/08 00:29:42;;;;;;;2.25;1.90;;;14.40;99.90;;;;;;5055854;28;20044;-73
2022/08/08 00:32:18;;;;;;;2.77;2.07;;;14.40;99.90;;;;;;5062634;28;20078;-72
2022/08/08 00:35:17;;;;;;;2.50;2.00;;;14.40;99.90;;;;;;5055436;28;20036;-74
2022/08/08 00:38:06;;;;;;;6.28;2.08;;;14.40;99.90;;;;;;5050559;28;20365;-73
2022/08/08 00:40:40;;;;;;;2.75;1.98;;;14.30;99.90;;;;;;5042958;28;20063;-72
2022/08/08 00:43:44;;;;;;;4.93;2.47;;;14.30;99.90;;;;;;5057885;28;20681;-74
2022/08/08 00:46:24;;;;;;;5.60;2.78;;;14.30;99.90;;;;;;5053938;28;20141;-74
2022/08/08 00:49:02;;;;;;;3.85;2.50;;;14.30;99.90;;;;;;5055755;28;20037;-73
2022/08/08 00:51:46;;;;;;;4.00;2.22;;;14.30;99.90;;;;;;5059652;28;20079;-74
2022/08/08 00:54:56;;;;;;;4.47;2.38;;;14.20;99.90;;;;;;5046423;28;20555;-73
2022/08/08 00:58:23;;;;;;;4.85;2.20;;;14.20;99.90;;;;;;4981974;28;20045;-73
2022/08/08 01:01:13;;;;;;;3.80;2.17;;;14.20;99.90;;;;;;5016887;28;20053;-74
2022/08/08 01:04:23;;;;;;;2.42;2.10;;;14.10;99.90;;;;;;5047773;28;20041;-73
2022/08/08 01:07:18;;;;;;;2.33;1.92;;;13.30;99.90;;;;;;5045698;28;20114;-73
2022/08/08 01:09:53;;;;;;;;;;;14.10;99.90;;;;;;5047346;28;20071;-73
2022/08/08 01:12:40;;;;;;;2.38;2.28;;;14.00;99.90;;;;;;5050899;28;19924;-74
2022/08/08 01:15:25;;;;;;;2.50;2.30;;;14.00;99.90;;;;;;5056307;28;20036;-74
2022/08/08 01:18:18;;;;;;;2.80;2.50;;;14.00;99.90;;;;;;5034595;28;20052;-73
2022/08/08 01:21:06;;;;;;;3.08;2.75;;;14.50;99.90;;;;;;5019469;28;20370;-72
2022/08/08 01:24:15;;;;;;;4.75;3.28;;;14.00;99.90;;;;;;5034529;28;20087;-73
2022/08/08 01:26:57;;;;;;;2.83;2.60;;;14.00;99.90;;;;;;5035821;28;20036;-73
2022/08/08 01:29:44;;;;;;;4.20;3.38;;;14.00;99.90;;;;;;5033419;28;20044;-74
2022/08/08 01:32:27;;;;;;;3.03;2.83;;;13.90;99.90;;;;;;5062426;28;20081;-73
2022/08/08 01:35:19;;;;;;;4.95;3.00;;;13.90;99.90;;;;;;5049351;28;20456;-73
2022/08/08 01:37:47;;;;;;;4.40;2.58;;;13.90;99.90;;;;;;5050803;28;20049;-73
2022/08/08 01:40:50;;;;;;;3.70;3.00;;;13.90;99.90;;;;;;5059963;28;20055;-72
2022/08/08 01:43:37;;;;;;;4.63;3.20;;;13.90;99.90;;;;;;5055925;28;20041;-72
2022/08/08 01:46:23;;;;;;;5.20;2.95;;;13.90;99.90;;;;;;5041850;28;20124;-74
2022/08/08 01:48:58;;;;;;;3.30;2.90;;;13.80;99.90;;;;;;5057711;28;20575;-72
2022/08/08 01:51:42;;;;;;;3.00;2.75;;;13.80;99.90;;;;;;5040109;28;20124;-73
2022/08/08 01:54:33;;;;;;;4.57;2.80;;;13.80;99.90;;;;;;5059542;28;20407;-74
2022/08/08 01:57:25;;;;;;;4.68;3.33;;;13.80;99.90;;;;;;5062893;28;20049;-73
2022/08/08 01:59:59;;;;;;;4.32;2.85;;;13.80;99.90;;;;;;5038679;28;20049;-74
2022/08/08 02:02:43;;;;;;;3.08;2.60;;;13.30;99.90;;;;;;5037822;28;20049;-73
2022/08/08 02:05:44;;;;;;;3.47;2.77;;;13.80;99.90;;;;;;5057466;28;20128;-74
2022/08/08 02:08:24;;;;;;;5.28;3.40;;;13.80;99.90;;;;;;5026132;28;20284;-75
2022/08/08 02:11:10;;;;;;;3.30;2.88;;;13.70;99.90;;;;;;5044265;28;20477;-74
2022/08/08 02:13:48;;;;;;;3.38;3.08;;;13.70;99.90;;;;;;5047721;28;20049;-74
2022/08/08 02:16:26;;;;;;;3.30;3.10;;;14.50;99.90;;;;;;5060296;28;20079;-74
2022/08/08 02:19:02;;;;;;;3.28;3.03;;;13.60;99.90;;;;;;5062296;28;20397;-73
2022/08/08 02:24:30;;;;;;;2.80;2.60;;;13.60;99.90;;;;;;5052423;28;20049;-73
2022/08/08 02:27:06;;;;;;;4.72;3.00;;;13.60;99.90;;;;;;5065085;28;20045;-73
2022/08/08 02:29:44;;;;;;;3.55;3.13;;;13.60;99.90;;;;;;5033137;28;20047;-73
2022/08/08 02:32:15;;;;;;;2.88;2.67;;;13.60;99.90;;;;;;5063559;28;20048;-73
2022/08/08 02:35:00;;;;;;;3.30;3.08;;;14.70;99.90;;;;;;5054827;28;20048;-73
2022/08/08 02:37:44;;;;;;;;;;;13.60;99.90;;;;;;5052671;28;20484;-73
2022/08/08 02:40:19;;;;;;;4.63;2.80;;;13.60;99.90;;;;;;5036795;28;20487;-74
2022/08/08 02:43:04;;;;;;;2.95;2.75;;;13.90;99.90;;;;;;5041916;28;20060;-73
2022/08/08 02:45:57;;;;;;;3.60;3.20;;;14.40;99.90;;;;;;5058893;28;20404;-74
2022/08/08 02:48:58;;;;;;;3.60;3.30;;;13.70;99.90;;;;;;5043234;28;20068;-73
2022/08/08 02:51:57;;;;;;;4.10;3.30;;;13.70;99.90;;;;;;5022136;28;20147;-73
2022/08/08 02:54:31;;;;;;;5.78;3.25;;;13.70;99.90;;;;;;4999459;28;20053;-73
2022/08/08 02:57:25;;;;;;;3.33;3.00;;;13.70;99.90;;;;;;5049674;28;20451;-73
2022/08/08 03:00:17;;;;;;;7.10;3.33;;;13.80;99.90;;;;;;5062638;28;20141;-73
2022/08/08 03:03:21;;;;;;;4.20;3.47;;;13.70;99.90;;;;;;5054884;28;20041;-74
2022/08/08 03:06:05;;;;;;;5.25;3.22;;;13.70;99.90;;;;;;5048930;28;20073;-74
2022/08/08 03:09:00;;;;;;;5.68;3.72;;;14.00;99.90;;;;;;5056006;28;20033;-74
2022/08/08 03:11:44;;;;;;;3.38;3.08;;;13.70;99.90;;;;;;5005526;28;20162;-73
2022/08/08 03:14:37;;;;;;;5.88;3.00;;;13.70;99.90;;;;;;5041886;28;20052;-73
2022/08/08 03:17:18;;;;;;;5.70;3.22;;;13.70;99.90;;;;;;5061479;28;20502;-74
2022/08/08 03:20:10;;;;;;;6.55;3.95;;;13.80;99.90;;;;;;5052930;28;20437;-75
2022/08/08 03:22:47;;;;;;;4.95;3.75;;;13.80;99.90;;;;;;5038604;28;20071;-74
2022/08/08 03:25:15;;;;;;;4.35;3.05;;;13.80;99.90;;;;;;5048363;28;20119;-75
2022/08/08 03:28:02;;;;;;;7.03;3.38;;;13.70;99.90;;;;;;5039060;28;20036;-75
2022/08/08 03:30:28;;;;;;;5.72;4.00;;;13.80;99.90;;;;;;5029480;28;20063;-74
2022/08/08 03:35:40;;;;;;;5.03;4.40;;;13.70;99.90;;;;;;5050955;28;20123;-74
2022/08/08 03:38:08;;;;;;;4.55;4.07;;;13.70;99.90;;;;;;5059133;28;20249;-74
2022/08/08 03:40:35;;;;;;;4.28;3.88;;;13.70;99.90;;;;;;5043975;28;20040;-73
2022/08/08 03:43:01;;;;;;;4.47;3.90;;;13.80;99.90;;;;;;5059299;28;20497;-73
2022/08/08 03:45:28;;;;;;;6.93;4.20;;;13.90;99.90;;;;;;5062163;28;20076;-73
2022/08/08 03:48:02;;;;;;;6.00;4.25;;;14.00;99.90;;;;;;5057558;28;20503;-73
2022/08/08 03:50:29;;;;;;;7.00;4.45;;;13.90;99.90;;;;;;5057032;28;20555;-73
2022/08/08 03:52:56;;;;;;;6.72;4.75;;;14.00;99.90;;;;;;5056473;28;20401;-73
2022/08/08 03:55:23;;;;;;;7.63;4.90;;;14.90;99.90;;;;;;5060772;28;20037;-72
2022/08/08 03:57:53;;;;;;;6.20;4.00;;;14.50;99.90;;;;;;5059053;28;20123;-74
2022/08/08 04:00:21;;;;;;;4.63;3.75;;;13.90;99.90;;;;;;5058680;28;20048;-74
2022/08/08 04:03:13;;;;;;;4.50;4.10;;;13.90;99.90;;;;;;5057980;28;20113;-74
2022/08/08 04:05:39;;;;;;;4.65;4.13;;;14.50;99.90;;;;;;5046984;28;20053;-74
2022/08/08 04:08:06;;;;;;;6.50;3.75;;;13.90;99.90;;;;;;5060150;28;20503;-74
2022/08/08 04:10:37;;;;;;;6.43;4.10;;;13.90;99.90;;;;;;5050466;28;20064;-74
2022/08/08 04:13:03;;;;;;;4.70;4.20;;;13.90;99.90;;;;;;5058418;28;20489;-74
2022/08/08 04:15:29;;;;;;;5.70;4.97;;;14.00;99.90;;;;;;5059622;28;20043;-74
2022/08/08 04:17:54;;;;;;;9.75;4.82;;;14.70;99.90;;;;;;5052989;28;20561;-74
2022/08/08 04:20:20;;;;;;;9.02;5.78;;;14.00;99.90;;;;;;5043397;28;20519;-75
2022/08/08 04:22:46;;;;;;;6.18;5.53;;;13.90;99.90;;;;;;5055477;28;20079;-74
2022/08/08 04:25:11;;;;;;;6.13;4.80;;;13.90;99.90;;;;;;5064786;28;20028;-73
2022/08/08 04:27:37;;;;;;;5.32;4.68;;;14.00;99.90;;;;;;5056642;28;20092;-74
2022/08/08 04:30:05;;;;;;;6.45;4.80;;;13.90;99.90;;;;;;5062679;28;20043;-76
2022/08/08 04:32:31;;;;;;;8.27;5.35;;;14.00;99.90;;;;;;5056320;28;20538;-74
2022/08/08 04:34:56;;;;;;;7.50;4.43;;;14.00;99.90;;;;;;5031710;28;20045;-76
2022/08/08 04:37:22;;;;;;;7.63;4.35;;;14.00;99.90;;;;;;5039308;28;20103;-77
2022/08/08 04:39:48;;;;;;;7.97;4.75;;;14.00;99.90;;;;;;5062027;28;21005;-75
2022/08/08 04:42:14;;;;;;;8.57;5.18;;;14.40;99.90;;;;;;5056661;28;20419;-75
2022/08/08 04:44:40;;;;;;;7.57;4.88;;;14.50;99.90;;;;;;5061301;28;20037;-74
2022/08/08 04:47:06;;;;;;;8.07;5.30;;;14.10;99.90;;;;;;5063907;28;20066;-73
2022/08/08 04:49:32;;;;;;;6.00;4.75;;;14.10;99.90;;;;;;5058104;28;20032;-73
2022/08/08 04:51:58;;;;;;;6.95;4.90;;;14.50;99.90;;;;;;5057335;28;20043;-75
2022/08/08 04:54:24;;;;;;;6.22;4.40;;;14.10;99.90;;;;;;5052830;28;20045;-74
2022/08/08 04:56:50;;;;;;;6.57;4.95;;;14.80;99.90;;;;;;5061867;28;20427;-73
2022/08/08 04:59:16;;;;;;;10.10;5.82;;;14.20;99.90;;;;;;5036403;28;20041;-72
2022/08/08 05:01:42;;;;;;;6.50;5.80;;;14.20;99.90;;;;;;5057954;28;20111;-73
2022/08/08 05:04:07;;;;;;;8.85;4.93;;;14.20;99.90;;;;;;5057920;28;20044;-73
2022/08/08 05:06:33;;;;;;;5.15;4.65;;;14.50;99.90;;;;;;5056029;28;20464;-73
2022/08/08 05:08:59;;;;;;;5.45;4.10;;;14.20;99.90;;;;;;5062207;28;20046;-73
2022/08/08 05:11:25;;;;;;;7.22;4.75;;;14.20;99.90;;;;;;5040182;28;20037;-73
2022/08/08 05:13:51;;;;;;;10.50;4.97;;;14.20;99.90;;;;;;5055794;28;20158;-73
2022/08/08 05:16:16;;;;;;;4.80;3.42;;;14.20;99.90;;;;;;5041193;28;20059;-72
2022/08/08 05:18:42;;;;;;;8.75;5.13;;;14.40;99.90;;;;;;5058616;28;20052;-74
2022/08/08 05:21:08;;;;;;;9.32;4.85;;;14.60;99.90;;;;;;5059508;28;20036;-73
2022/08/08 05:23:34;;;;;;;7.95;5.07;;;15.20;99.90;;;;;;5051543;28;20040;-73
2022/08/08 05:26:01;;;;;;;12.02;4.88;;;14.50;99.90;;;;;;5058911;28;20036;-74
2022/08/08 05:28:27;;;;;;;10.40;4.55;;;14.50;99.90;;;;;;5047487;28;20101;-73
2022/08/08 05:30:52;;;;;;;7.18;4.53;;;14.50;99.90;;;;;;5044707;28;20128;-74
2022/08/08 05:33:18;;;;;;;7.45;4.32;;;14.50;99.90;;;;;;5038496;28;20048;-74
2022/08/08 05:35:45;;;;;;;7.18;4.70;;;14.60;99.90;;;;;;5060322;28;20033;-73
2022/08/08 05:38:14;;;;;;;8.20;4.85;;;14.50;99.90;;;;;;5052138;28;20066;-73
2022/08/08 05:40:47;;;;;;;7.70;4.97;;;14.60;99.90;;;;;;5059212;28;20041;-73
2022/08/08 05:43:23;;;;;;;6.70;4.90;;;14.60;99.90;;;;;;5058071;28;20040;-73
2022/08/08 05:45:49;;;;;;;7.47;4.32;;;14.60;99.90;;;;;;5065595;28;20041;-74
2022/08/08 05:48:17;;;;;;;9.85;4.38;;;14.60;99.90;;;;;;5055454;28;20048;-72
2022/08/08 05:50:44;;;;;;;6.10;3.70;;;14.50;99.90;;;;;;5043755;28;20048;-75
2022/08/08 05:53:09;;;;;;;12.15;4.65;;;14.50;99.90;;;;;;5059267;28;20044;-75
2022/08/08 05:55:35;;;;;;;9.95;4.40;;;14.60;99.90;;;;;;5053185;28;20047;-74
2022/08/08 05:58:03;;;;;;;5.53;3.22;;;14.60;99.90;;;;;;5062225;28;20380;-74
2022/08/08 06:00:31;;;;;;;6.95;3.97;;;14.60;99.90;;;;;;5039342;28;20072;-74
2022/08/08 06:03:09;;;;;;;7.68;4.75;;;14.70;99.90;;;;;;5059595;28;20043;-75
2022/08/08 06:05:53;;;;;;;6.32;3.88;;;14.70;99.90;;;;;;5059287;28;20048;-74
2022/08/08 06:08:30;;;;;;;9.38;4.38;;;14.80;99.90;;;;;;5058089;28;20040;-74
2022/08/08 06:10:58;;;;;;;10.10;4.38;;;14.80;99.90;;;;;;5041532;28;20064;-74
2022/08/08 06:13:27;;;;;;;5.72;4.35;;;15.60;99.90;;;;;;5057962;28;20048;-74
2022/08/08 06:15:56;;;;;;;4.85;3.85;;;14.60;99.90;;;;;;5059231;28;20041;-73
2022/08/08 06:18:24;;;;;;;7.55;4.38;;;14.90;99.90;;;;;;5040189;28;20120;-74
2022/08/08 06:20:56;;;;;;;8.90;5.03;;;14.90;99.90;;;;;;5041790;28;20051;-73
2022/08/08 06:23:22;;;;;;;6.43;4.05;;;15.20;99.90;;;;;;5033636;28;20037;-73
2022/08/08 06:26:09;;;;;;;10.57;4.25;;;15.00;99.90;;;;;;5060381;28;20044;-73
2022/08/08 06:28:51;;;;;;;7.65;3.85;;;15.10;99.90;;;;;;5057905;28;20036;-73
2022/08/08 06:31:21;;;;;;;5.40;3.80;;;15.20;99.90;;;;;;5058129;28;20072;-74
2022/08/08 06:34:15;;;;;;;6.15;3.90;;;15.20;99.90;;;;;;5041640;28;20041;-73
2022/08/08 06:36:43;;;;;;;10.52;4.13;;;15.80;99.90;;;;;;5050270;28;20478;-72
2022/08/08 06:39:13;;;;;;;5.63;4.22;;;15.50;99.90;;;;;;5042468;28;20048;-74
2022/08/08 06:41:59;;;;;;;8.45;4.50;;;15.40;99.90;;;;;;5060704;28;20037;-74
2022/08/08 06:44:25;;;;;;;7.20;4.10;;;15.50;99.90;;;;;;5056852;28;20044;-73
2022/08/08 06:47:06;;;;;;;7.57;4.25;;;15.60;99.90;;;;;;4860545;28;10001151;-75
2022/08/08 06:49:31;;;;;;;8.43;4.15;;;16.10;99.90;;;;;;5059333;28;20245;-74
2022/08/08 06:51:59;;;;;;;9.90;3.95;;;15.80;99.90;;;;;;5057421;28;20102;-74
2022/08/08 06:54:25;;;;;;;11.68;3.85;;;15.70;99.90;;;;;;5044643;28;20048;-77
2022/08/08 06:56:51;;;;;;;7.05;3.20;;;15.70;99.90;;;;;;5050759;28;20049;-75
2022/08/08 06:59:16;;;;;;;5.68;3.33;;;15.90;99.90;;;;;;5050205;28;20045;-75
2022/08/08 07:01:53;;;;;;;8.90;3.35;;;15.80;99.90;;;;;;5053933;28;20116;-75
2022/08/08 07:04:26;;;;;;;8.32;4.50;;;15.90;99.90;;;;;;5051842;28;20052;-76
2022/08/08 07:07:02;;;;;;;12.10;5.18;;;15.90;99.90;;;;;;5052872;28;20043;-76
2022/08/08 07:09:41;;;;;;;6.20;3.50;;;16.00;99.90;;;;;;5035701;28;20064;-76
2022/08/08 07:12:08;;;;;;;5.25;3.65;;;16.10;99.90;;;;;;5051422;28;20174;-79
2022/08/08 07:14:55;;;;;;;7.43;3.90;;;16.10;99.90;;;;;;5052758;28;20552;-74
2022/08/08 07:17:24;;;;;;;5.53;3.22;;;16.20;99.90;;;;;;5061098;28;20044;-74
2022/08/08 07:20:07;;;;;;;8.50;3.05;;;16.20;99.90;;;;;;5046453;28;20037;-75
2022/08/08 07:22:52;;;;;;;9.60;3.50;;;16.30;99.90;;;;;;5038408;28;20102;-75
2022/08/08 07:25:22;;;;;;;5.05;3.13;;;16.40;99.90;;;;;;5035916;28;20484;-74
2022/08/08 07:27:53;;;;;;;4.15;2.40;;;17.10;99.90;;;;;;5045388;28;20049;-76
2022/08/08 07:30:19;;;;;;;11.32;3.15;;;16.60;99.90;;;;;;5055140;28;20029;-74
2022/08/08 07:32:47;;;;;;;4.68;2.40;;;17.50;99.90;;;;;;5031724;28;20837;-76
2022/08/08 07:35:13;;;;;;;6.60;2.08;;;16.70;99.90;;;;;;5050792;28;20433;-75
2022/08/08 07:37:41;;;;;;;4.18;2.10;;;16.80;99.90;;;;;;5033504;28;20091;-76
2022/08/08 07:40:08;;;;;;;3.75;1.80;;;16.80;99.90;;;;;;5055847;28;20105;-76
2022/08/08 07:42:36;;;;;;;6.78;1.63;;;16.90;99.90;;;;;;5060255;28;20045;-76
2022/08/08 07:45:02;;;;;;;5.40;1.80;;;16.90;99.90;;;;;;5043413;28;20044;-77
2022/08/08 07:47:28;;;;;;;3.58;1.88;;;17.00;99.90;;;;;;5058748;28;20051;-75
2022/08/08 07:49:53;;;;;;;3.65;1.63;;;17.20;99.90;;;;;;5061179;28;20040;-78
2022/08/08 07:52:20;;;;;;;3.03;1.27;;;17.10;99.90;;;;;;5059567;28;20041;-77
2022/08/08 07:55:12;;;;;;;2.58;1.40;;;17.30;99.90;;;;;;5041063;28;20464;-77
2022/08/08 07:57:57;;;;;;;5.82;1.55;;;17.20;99.90;;;;;;5040951;28;20041;-77
2022/08/08 08:00:28;;;;;;;8.25;1.60;;;17.30;99.90;;;;;;5061678;28;20043;-76
2022/08/08 08:03:01;;;;;;;4.00;0.80;;;18.00;99.90;;;;;;5052205;28;20509;-78
2022/08/08 08:05:29;;;;;;;2.40;1.20;;;17.40;99.90;;;;;;5060939;28;20041;-77
2022/08/08 08:08:22;;;;;;;2.97;0.77;;;17.50;99.90;;;;;;5052814;28;20467;-77
2022/08/08 08:10:55;;;;;;;3.08;0.65;;;17.50;99.90;;;;;;5046020;28;20487;-78
2022/08/08 08:13:42;;;;;;;11.10;6.57;;;17.60;99.90;;;;;;5057832;28;20055;-81
2022/08/08 08:16:17;;;;;;;17.20;12.75;;;18.40;99.90;;;;;;5058776;28;20045;-78
2022/08/08 08:18:51;;;;;;;3.55;1.42;;;17.70;99.90;;;;;;5041466;28;20037;-76
2022/08/08 08:21:18;;;;;;;1.95;0.88;;;17.80;99.90;;;;;;5054538;28;20060;-78
2022/08/08 08:23:44;;;;;;;3.83;0.73;;;17.90;99.90;;;;;;5064219;28;20090;-80
2022/08/08 08:26:12;;;;;;;3.22;0.57;;;18.00;99.90;;;;;;5032479;28;20041;-84
2022/08/08 08:28:38;;;;;;;3.22;0.93;;;18.10;99.90;;;;;;5060285;28;20055;-78
2022/08/08 08:31:04;;;;;;;2.97;0.60;;;18.20;99.90;;;;;;5057393;28;20049;-77
2022/08/08 08:33:31;;;;;;;2.33;0.93;;;18.20;99.90;;;;;;5029988;28;20068;-77
2022/08/08 08:35:58;;;;;;;3.40;0.60;;;18.30;99.90;;;;;;5057707;28;20037;-77
2022/08/08 08:38:23;;;;;;;2.85;0.75;;;18.40;99.90;;;;;;5039452;28;20491;-76
2022/08/08 08:40:49;;;;;;;3.60;0.90;;;18.40;99.90;;;;;;5058801;28;20080;-76
2022/08/08 08:43:16;;;;;;;2.40;0.55;;;18.40;99.90;;;;;;5059109;28;20037;-76
2022/08/08 08:45:43;;;;;;;2.22;0.85;;;18.40;99.90;;;;;;5058315;28;20040;-76
2022/08/08 08:48:09;;;;;;;2.17;0.40;;;18.50;99.90;;;;;;5056908;28;20047;-77
2022/08/08 08:50:36;;;;;;;0.95;0.35;;;18.50;99.90;;;;;;5045943;28;20123;-79
2022/08/08 08:53:08;;;;;;;2.08;0.30;;;18.60;99.90;;;;;;5053639;28;20045;-78
2022/08/08 08:55:37;;;;;;;2.83;0.82;;;18.70;99.90;;;;;;5028455;28;20041;-77
2022/08/08 08:58:05;;;;;;;6.35;0.70;;;18.70;99.90;;;;;;5050745;28;20051;-77
2022/08/08 09:00:32;;;;;;;4.65;2.42;;;18.80;99.90;;;;;;5051419;28;20045;-78
2022/08/08 09:02:59;;;;;;;3.95;0.82;;;18.80;99.90;;;;;;5050841;28;20040;-81
2022/08/08 09:05:28;;;;;;;4.57;0.90;;;18.90;99.90;;;;;;5038884;28;20086;-74
2022/08/08 09:07:58;;;;;;;2.15;0.47;;;19.00;99.90;;;;;;5055855;28;20081;-74
2022/08/08 09:10:29;;;;;;;4.43;0.95;;;19.10;99.90;;;;;;5062884;28;20052;-73
2022/08/08 09:12:55;;;;;;;2.33;1.08;;;19.10;99.90;;;;;;5061442;28;20048;-75
2022/08/08 09:15:21;;;;;;;4.68;0.68;;;19.20;99.90;;;;;;5040409;28;20029;-75
2022/08/08 09:17:49;;;;;;;9.75;5.72;;;19.20;99.90;;;;;;5059519;28;20365;-73
2022/08/08 09:20:16;;;;;;;1.45;0.57;;;19.20;99.90;;;;;;5039875;28;20059;-73
2022/08/08 09:22:45;;;;;;;1.15;0.43;;;19.30;99.90;;;;;;5043260;28;20473;-73
2022/08/08 09:25:12;;;;;;;3.58;0.93;;;19.40;99.90;;;;;;5061462;28;20487;-74
2022/08/08 09:27:47;;;;;;;1.70;0.40;;;19.40;99.90;;;;;;5054513;28;20404;-71
2022/08/08 09:30:14;;;;;;;1.98;0.40;;;19.50;99.90;;;;;;5026876;28;20036;-74
2022/08/08 09:32:42;;;;;;;1.75;0.60;;;19.50;99.90;;;;;;5059471;28;20500;-80
2022/08/08 09:35:17;;;;;;;2.17;0.50;;;20.00;99.90;;;;;;5061690;28;20032;-75
2022/08/08 09:37:51;;;;;;;2.40;0.73;;;19.60;99.90;;;;;;5059919;28;20044;-77
2022/08/08 09:40:26;;;;;;;2.65;0.57;;;19.70;99.90;;;;;;5054503;28;20072;-78
2022/08/08 09:43:07;;;;;;;2.30;0.70;;;19.70;99.90;;;;;;5032794;28;20377;-71
2022/08/08 09:45:58;;;;;;;3.67;0.52;;;19.70;99.90;;;;;;5062385;28;20082;-73
2022/08/08 09:48:28;;;;;;;3.10;0.47;;;19.70;99.90;;;;;;5056391;28;20055;-72
2022/08/08 09:50:55;;;;;;;5.15;0.70;;;19.70;99.90;;;;;;5044646;28;20523;-73
2022/08/08 09:53:20;;;;;;;3.50;0.50;;;19.70;99.90;;;;;;5056694;28;20044;-73
2022/08/08 09:55:47;;;;;;;4.03;0.80;;;19.70;99.90;;;;;;5056485;28;20040;-74
2022/08/08 09:58:18;;;;;;;2.15;0.57;;;19.70;99.90;;;;;;5059514;28;20368;-76
2022/08/08 10:00:45;;;;;;;2.28;0.40;;;19.70;99.90;;;;;;5058020;28;20041;-73
2022/08/08 10:03:17;;;;;;;7.30;2.22;;;19.70;99.90;;;;;;5061101;28;20067;-76
2022/08/08 10:05:44;;;;;;;4.85;0.60;;;20.20;99.90;;;;;;5056264;28;20507;-73
2022/08/08 10:08:10;;;;;;;3.72;0.82;;;19.70;99.90;;;;;;5043477;28;20397;-75
2022/08/08 10:10:41;;;;;;;2.20;0.63;;;19.70;99.90;;;;;;5053157;28;20037;-72
2022/08/08 10:13:21;;;;;;;1.60;0.40;;;19.70;99.90;;;;;;5052951;28;20047;-74
2022/08/08 10:15:55;;;;;;;1.45;0.43;;;19.80;99.90;;;;;;5041271;28;20073;-75
2022/08/08 10:18:29;;;;;;;3.65;0.35;;;19.80;99.90;;;;;;5062826;28;20123;-74
2022/08/08 10:21:02;;;;;;;3.60;0.35;;;19.80;99.90;;;;;;5034066;28;20547;-82
2022/08/08 10:23:33;;;;;;;0.55;0.30;;;19.80;99.90;;;;;;5047684;28;20520;-78
2022/08/08 10:25:59;;;;;;;4.00;0.40;;;19.80;99.90;;;;;;5044973;28;20091;-79
2022/08/08 10:28:29;;;;;;;4.47;2.65;;;19.80;99.90;;;;;;5052432;28;20048;-80
2022/08/08 10:30:58;;;;;;;1.08;0.95;;;19.90;99.90;;;;;;5048142;28;20064;-79
2022/08/08 10:33:32;;;;;;;3.53;0.40;;;19.90;99.90;;;;;;5050529;28;20132;-82
2022/08/08 10:36:03;;;;;;;0.93;0.32;;;20.00;99.90;;;;;;5051262;28;20068;-82
2022/08/08 10:38:30;;;;;;;5.65;0.70;;;19.90;99.90;;;;;;5029510;28;20041;-78
2022/08/08 10:41:02;;;;;;;2.33;0.50;;;20.00;99.90;;;;;;5049804;28;20056;-80
2022/08/08 10:43:38;;;;;;;1.58;0.40;;;20.00;99.90;;;;;;5061120;28;20135;-79
2022/08/08 10:46:24;;;;;;;4.95;0.40;;;20.00;99.90;;;;;;5053031;28;20049;-82
2022/08/08 10:48:53;;;;;;;4.70;0.52;;;20.00;99.90;;;;;;5060329;28;20104;-79
2022/08/08 10:51:19;;;;;;;3.30;0.60;;;20.00;99.90;;;;;;5055979;28;20044;-83
2022/08/08 10:53:49;;;;;;;7.57;0.63;;;19.90;99.90;;;;;;5037631;28;20049;-79
2022/08/08 10:56:16;;;;;;;4.65;0.57;;;19.90;99.90;;;;;;5063262;28;20040;-79
2022/08/08 10:58:42;;;;;;;1.90;0.50;;;19.90;99.90;;;;;;5062079;28;20051;-79
2022/08/08 11:01:09;;;;;;;1.55;0.50;;;20.00;99.90;;;;;;5061819;28;20029;-79
2022/08/08 11:03:42;;;;;;;4.28;0.63;;;20.00;99.90;;;;;;5056222;28;20055;-81
2022/08/08 11:06:09;;;;;;;2.33;0.55;;;20.50;99.90;;;;;;5038403;28;20037;-84
2022/08/08 11:08:35;;;;;;;3.70;0.30;;;20.00;99.90;;;;;;5068125;28;20032;-78
2022/08/08 11:11:06;;;;;;;2.97;1.20;;;20.10;99.90;;;;;;4706086;28;9999920;-79
2022/08/08 11:13:42;;;;;;;3.33;2.38;;;20.00;99.90;;;;;;5044661;28;20075;-79
2022/08/08 11:16:31;;;;;;;2.03;0.60;;;20.10;99.90;;;;;;5039668;28;20048;-80
2022/08/08 11:19:01;;;;;;;2.00;0.47;;;20.20;99.90;;;;;;5048233;28;20052;-82
2022/08/08 11:21:39;;;;;;;1.73;0.40;;;20.30;99.90;;;;;;5055989;28;20049;-79
2022/08/08 11:24:08;;;;;;;2.67;0.57;;;20.20;99.90;;;;;;5035238;28;20512;-79
2022/08/08 11:26:39;;;;;;;5.97;0.40;;;20.30;99.90;;;;;;5031290;28;20140;-80
2022/08/08 11:29:07;;;;;;;1.15;0.50;;;20.40;99.90;;;;;;5042770;28;20071;-80
2022/08/08 11:31:38;;;;;;;1.50;0.43;;;20.20;99.90;;;;;;5037759;28;20408;-79
2022/08/08 11:34:07;;;;;;;1.92;0.68;;;20.30;99.90;;;;;;5054319;28;20036;-80
2022/08/08 11:36:36;;;;;;;2.97;0.47;;;20.40;99.90;;;;;;5050204;28;20047;-80
2022/08/08 11:39:04;;;;;;;1.00;0.40;;;20.80;99.90;;;;;;5042824;28;20549;-81
2022/08/08 11:41:30;;;;;;;0.85;0.32;;;20.30;99.90;;;;;;5055907;28;20067;-80
2022/08/08 11:43:56;;;;;;;1.38;0.52;;;20.30;99.90;;;;;;5050544;28;20493;-78
2022/08/08 11:46:26;;;;;;;1.77;0.35;;;20.40;99.90;;;;;;5047544;28;20049;-78
2022/08/08 11:48:53;;;;;;;2.83;0.52;;;20.50;99.90;;;;;;5044323;28;20037;-78
2022/08/08 11:51:21;;;;;;;1.30;0.50;;;20.50;99.90;;;;;;4683061;28;10000220;-78
2022/08/08 11:53:48;;;;;;;1.98;0.40;;;20.60;99.90;;;;;;5055178;28;20375;-77
2022/08/08 11:56:20;;;;;;;2.13;0.60;;;20.70;99.90;;;;;;5058018;28;20046;-79
2022/08/08 11:58:46;;;;;;;2.10;0.60;;;20.80;99.90;;;;;;5039960;28;20051;-76
2022/08/08 12:01:12;;;;;;;4.50;0.77;;;20.90;99.90;;;;;;5046285;28;20040;-78
2022/08/08 12:03:45;;;;;;;3.58;0.50;;;20.90;99.90;;;;;;5061033;28;20106;-78
2022/08/08 12:06:12;;;;;;;6.20;0.88;;;21.40;99.90;;;;;;5060098;28;20039;-79
2022/08/08 12:08:39;;;;;;;2.45;0.60;;;20.90;99.90;;;;;;5042374;28;20125;-77
2022/08/08 12:11:11;;;;;;;2.70;0.50;;;20.90;99.90;;;;;;5027469;28;20037;-79
2022/08/08 12:13:38;;;;;;;1.85;0.57;;;20.90;99.90;;;;;;5048102;28;20427;-76
2022/08/08 12:16:15;;;;;;;2.20;0.50;;;21.00;99.90;;;;;;5043439;28;20044;-73
2022/08/08 12:18:52;;;;;;;4.32;0.73;;;21.00;99.90;;;;;;5050562;28;20048;-76
2022/08/08 12:21:28;;;;;;;3.42;0.52;;;21.10;99.90;;;;;;5058171;28;20044;-78
2022/08/08 12:24:08;;;;;;;1.38;0.52;;;21.10;99.90;;;;;;5055615;28;20116;-84
2022/08/08 12:26:36;;;;;;;1.85;0.40;;;21.20;99.90;;;;;;5043128;28;20756;-83
2022/08/08 12:29:25;;;;;;;4.05;0.40;;;21.10;99.90;;;;;;5056530;28;20090;-82
2022/08/08 12:32:10;;;;;;;1.75;0.52;;;21.20;99.90;;;;;;5033419;28;20102;-82
2022/08/08 12:34:44;;;;;;;2.88;0.40;;;21.20;99.90;;;;;;5048424;28;20052;-82
2022/08/08 12:37:20;;;;;;;;;;;21.20;99.90;;;;;;5029822;28;20044;-82
2022/08/08 12:39:46;;;;;;;1.98;0.40;;;21.20;99.90;;;;;;5051526;28;20309;-82
2022/08/08 12:42:12;;;;;;;1.60;0.30;;;21.10;99.90;;;;;;5031382;28;20045;-82
2022/08/08 12:44:40;;;;;;;3.15;0.30;;;21.30;99.90;;;;;;5053101;28;20288;-83
2022/08/08 12:47:06;;;;;;;4.15;0.45;;;21.30;99.90;;;;;;5055736;28;20055;-83
2022/08/08 12:49:34;;;;;;;1.35;0.38;;;21.90;99.90;;;;;;5057043;28;20041;-80
2022/08/08 12:52:00;;;;;;;3.88;0.40;;;21.40;99.90;;;;;;5031925;28;20536;-77
2022/08/08 12:54:46;;;;;;;3.17;0.40;;;21.30;99.90;;;;;;5052633;28;20056;-77
2022/08/08 12:57:21;;;;;;;14.95;0.75;;;21.30;99.90;;;;;;5032165;28;20057;-76
2022/08/08 12:59:51;;;;;;;2.33;0.68;;;21.30;99.90;;;;;;5058188;28;20040;-79
2022/08/08 13:02:25;;;;;;;2.28;0.77;;;21.30;99.90;;;;;;5059368;28;20041;-77
2022/08/08 13:04:51;;;;;;;;;;;21.30;99.90;;;;;;5061110;28;20032;-76
2022/08/08 13:07:17;;;;;;;0.90;0.25;;;21.30;99.90;;;;;;5038843;28;19977;-78
2022/08/08 13:09:53;;;;;;;9.88;1.15;;;21.40;99.90;;;;;;5060425;28;20053;-78
2022/08/08 13:12:23;;;;;;;5.75;0.60;;;21.40;99.90;;;;;;5059749;28;20036;-76
2022/08/08 13:14:51;;;;;;;2.17;0.45;;;21.50;99.90;;;;;;5062589;28;20044;-80
2022/08/08 13:17:25;;;;;;;2.33;0.43;;;21.30;99.90;;;;;;5060374;28;20054;-75
2022/08/08 13:19:54;;;;;;;4.35;0.50;;;21.40;99.90;;;;;;5060114;28;20091;-79
2022/08/08 13:22:21;;;;;;;2.38;0.60;;;21.40;99.90;;;;;;5056025;28;20532;-78
2022/08/08 13:24:46;;;;;;;0.57;0.30;;;21.40;99.90;;;;;;5042631;28;20048;-79
2022/08/08 13:27:17;;;;;;;1.70;0.40;;;21.50;99.90;;;;;;5040207;28;20036;-76